Time;durP1;ratioP1;P1;durP2;ratioP2;P2;SDS_P1;SDS_P2;PMS_P1;PMS_P2;Temp;Humidity;BMP_temperature;BMP_pressure;BME280_temperature;BME280_humidity;BME280_pressure;Samples;Min_cycle;Max_cycle;Signal;HPM_P1;HPM_P2
2022/04/21 00:00:35;;;;;;;9.93;7.07;;;3.20;85.20;;;;;;5034729;28;20017;-68
2022/04/21 00:03:02;;;;;;;11.73;7.18;;;3.10;85.30;;;;;;5030777;28;20621;-67
2022/04/21 00:05:28;;;;;;;11.05;7.53;;;3.10;85.80;;;;;;5018329;28;20367;-68
2022/04/21 00:07:54;;;;;;;10.13;7.07;;;3.10;85.30;;;;;;5023187;28;20037;-68
2022/04/21 00:10:21;;;;;;;10.88;7.18;;;3.30;84.30;;;;;;5018574;28;20037;-66
2022/04/21 00:12:47;;;;;;;10.15;7.15;;;3.20;84.30;;;;;;5026117;28;20108;-67
2022/04/21 00:15:13;;;;;;;10.90;7.60;;;3.10;84.90;;;;;;5037027;28;20053;-68
2022/04/21 00:17:40;;;;;;;14.43;7.38;;;3.10;85.90;;;;;;5035569;28;20421;-67
2022/04/21 00:20:06;;;;;;;11.63;7.40;;;3.40;84.90;;;;;;5034255;28;20034;-68
2022/04/21 00:25:16;;;;;;;13.13;7.60;;;3.90;83.20;;;;;;5036710;28;20488;-67
2022/04/21 00:27:44;;;;;;;10.43;6.78;;;4.10;82.60;;;;;;5035217;28;20037;-68
2022/04/21 00:30:13;;;;;;;11.18;6.82;;;4.30;81.90;;;;;;5018189;28;20390;-68
2022/04/21 00:32:40;;;;;;;10.65;6.30;;;4.50;81.40;;;;;;5035912;28;20113;-68
2022/04/21 00:35:08;;;;;;;10.57;6.90;;;4.60;81.20;;;;;;5036461;28;20026;-68
2022/04/21 00:37:56;;;;;;;13.07;6.70;;;4.70;81.00;;;;;;5030871;28;20318;-68
2022/04/21 00:40:26;;;;;;;10.55;7.10;;;4.90;80.50;;;;;;5036238;28;20029;-68
2022/04/21 00:42:53;;;;;;;9.75;7.00;;;4.90;80.40;;;;;;5026924;28;20375;-68
2022/04/21 00:45:19;;;;;;;12.93;6.68;;;4.80;80.90;;;;;;5019143;28;20101;-69
2022/04/21 00:47:46;;;;;;;10.95;6.57;;;4.90;81.00;;;;;;5030798;28;20483;-68
2022/04/21 00:50:22;;;;;;;13.82;7.15;;;5.00;80.90;;;;;;5027334;28;20025;-68
2022/04/21 00:52:50;;;;;;;11.73;7.28;;;5.10;80.60;;;;;;5024256;28;20039;-68
2022/04/21 00:55:15;;;;;;;11.27;7.53;;;5.20;80.30;;;;;;5028917;28;20029;-69
2022/04/21 00:57:42;;;;;;;11.77;7.10;;;5.30;79.90;;;;;;5029169;28;20075;-68
2022/04/21 01:00:12;;;;;;;11.30;7.85;;;5.40;79.70;;;;;;5026047;28;20075;-68
2022/04/21 01:02:55;;;;;;;11.52;7.35;;;5.30;79.90;;;;;;5035466;28;20326;-69
2022/04/21 01:05:26;;;;;;;13.80;7.85;;;5.00;80.70;;;;;;5037376;28;20095;-68
2022/04/21 01:07:53;;;;;;;12.75;7.60;;;4.70;81.80;;;;;;5046392;28;20059;-70
2022/04/21 01:10:24;;;;;;;11.52;7.95;;;4.40;82.80;;;;;;5037830;28;20028;-68
2022/04/21 01:12:50;;;;;;;11.57;7.88;;;4.10;83.70;;;;;;5032592;28;20078;-69
2022/04/21 01:15:16;;;;;;;11.00;7.80;;;3.80;84.50;;;;;;5025917;28;20136;-68
2022/04/21 01:17:42;;;;;;;10.75;7.55;;;3.70;85.50;;;;;;5035910;28;20379;-69
2022/04/21 01:20:09;;;;;;;13.10;7.88;;;3.40;86.40;;;;;;5034870;28;20030;-69
2022/04/21 01:22:36;;;;;;;14.50;8.75;;;3.20;87.50;;;;;;5035450;28;20037;-69
2022/04/21 01:25:01;;;;;;;10.68;7.78;;;3.00;88.20;;;;;;5023223;28;20087;-67
2022/04/21 01:27:35;;;;;;;12.70;8.40;;;2.90;88.80;;;;;;5028155;28;20018;-69
2022/04/21 01:30:02;;;;;;;13.00;8.25;;;2.90;89.30;;;;;;5031973;28;20049;-68
2022/04/21 01:32:28;;;;;;;12.55;8.25;;;2.80;89.60;;;;;;5037608;28;20029;-69
2022/04/21 01:34:54;;;;;;;11.00;7.82;;;2.80;89.90;;;;;;5019294;28;20394;-69
2022/04/21 01:42:48;;;;;;;12.25;8.85;;;2.90;90.00;;;;;;5028932;28;20462;-69
2022/04/21 01:45:17;;;;;;;13.10;9.18;;;2.80;90.00;;;;;;5024195;28;20021;-69
2022/04/21 01:47:43;;;;;;;14.07;9.30;;;2.70;90.20;;;;;;5034132;28;20104;-68
2022/04/21 01:50:09;;;;;;;11.18;8.10;;;2.60;90.70;;;;;;5016114;28;20573;-68
2022/04/21 01:52:37;;;;;;;12.38;8.10;;;2.60;91.00;;;;;;5029735;28;20100;-67
2022/04/21 01:55:06;;;;;;;12.65;8.50;;;2.50;91.40;;;;;;5031654;28;20437;-67
2022/04/21 01:57:32;;;;;;;15.32;9.55;;;2.40;91.50;;;;;;5023812;28;20037;-67
2022/04/21 01:59:58;;;;;;;14.57;9.48;;;2.40;92.10;;;;;;5032452;28;20346;-67
2022/04/21 02:02:23;;;;;;;14.10;8.65;;;2.40;92.40;;;;;;5026271;28;20330;-69
2022/04/21 02:04:52;;;;;;;14.35;9.15;;;2.40;92.20;;;;;;5013922;28;20030;-69
2022/04/21 02:07:21;;;;;;;13.18;9.13;;;2.50;91.90;;;;;;5010157;28;20021;-69
2022/04/21 02:09:46;;;;;;;15.40;9.88;;;2.40;92.00;;;;;;5010050;28;20528;-68
2022/04/21 02:12:15;;;;;;;12.85;9.00;;;2.40;92.30;;;;;;5015730;28;20033;-68
2022/04/21 02:14:42;;;;;;;15.70;9.55;;;2.30;92.60;;;;;;5007323;28;21471;-68
2022/04/21 02:17:08;;;;;;;16.40;9.82;;;2.30;92.80;;;;;;5013787;28;20037;-69
2022/04/21 02:19:36;;;;;;;13.25;8.95;;;2.40;92.10;;;;;;5026580;28;20439;-68
2022/04/21 02:22:01;;;;;;;15.43;9.45;;;2.40;92.20;;;;;;5016142;28;20036;-68
2022/04/21 02:24:27;;;;;;;13.80;9.38;;;2.30;92.30;;;;;;5012149;28;20033;-68
2022/04/21 02:26:53;;;;;;;15.20;10.13;;;2.10;92.70;;;;;;5017391;28;20030;-68
2022/04/21 02:29:19;;;;;;;14.02;9.25;;;2.20;92.70;;;;;;5019636;28;20322;-69
2022/04/21 02:31:45;;;;;;;13.75;9.13;;;2.30;92.30;;;;;;5015784;28;20033;-68
2022/04/21 02:34:11;;;;;;;13.55;9.90;;;2.30;92.00;;;;;;5012673;28;20040;-67
2022/04/21 02:36:37;;;;;;;14.75;9.40;;;2.20;91.90;;;;;;5005437;28;20088;-69
2022/04/21 02:39:02;;;;;;;13.98;9.38;;;2.30;92.10;;;;;;5016136;28;20091;-68
2022/04/21 02:41:28;;;;;;;12.65;8.98;;;2.30;92.30;;;;;;5018145;28;20096;-68
2022/04/21 02:43:54;;;;;;;17.77;9.77;;;2.40;91.50;;;;;;5009637;28;20114;-68
2022/04/21 02:46:28;;;;;;;16.33;10.27;;;2.30;91.40;;;;;;5016267;28;20028;-68
2022/04/21 02:49:00;;;;;;;14.77;10.18;;;2.10;92.40;;;;;;5014652;28;20030;-69
2022/04/21 02:51:27;;;;;;;13.50;9.15;;;2.00;93.10;;;;;;5020737;28;20031;-68
2022/04/21 02:59:21;;;;;;;16.25;10.55;;;1.60;94.70;;;;;;5007829;28;21529;-68
2022/04/21 03:01:47;;;;;;;15.13;10.55;;;1.60;94.80;;;;;;5008716;28;20037;-69
2022/04/21 03:04:14;;;;;;;14.27;10.50;;;1.60;94.80;;;;;;5011885;28;20125;-69
2022/04/21 03:06:40;;;;;;;17.55;10.73;;;1.50;95.10;;;;;;5006574;28;20033;-69
2022/04/21 03:09:05;;;;;;;16.10;9.93;;;1.60;95.30;;;;;;5008169;28;20036;-68
2022/04/21 03:11:31;;;;;;;16.13;10.70;;;1.60;95.00;;;;;;5026162;28;20480;-69
2022/04/21 03:13:57;;;;;;;14.70;10.38;;;1.60;95.30;;;;;;5008294;28;20732;-69
2022/04/21 03:16:22;;;;;;;14.18;9.75;;;1.70;94.60;;;;;;5007904;28;20169;-67
2022/04/21 03:18:48;;;;;;;16.65;9.82;;;1.80;94.40;;;;;;5008620;28;20029;-69
2022/04/21 03:26:44;;;;;;;15.05;10.68;;;1.60;94.90;;;;;;5009196;28;20683;-68
2022/04/21 03:29:09;;;;;;;15.60;11.30;;;1.50;95.20;;;;;;5008342;28;20029;-69
2022/04/21 03:31:35;;;;;;;18.58;11.77;;;1.50;95.40;;;;;;5008682;28;20053;-68
2022/04/21 03:34:04;;;;;;;17.45;11.35;;;1.50;95.50;;;;;;5010124;28;20037;-69
2022/04/21 03:36:34;;;;;;;17.95;10.73;;;1.60;95.40;;;;;;5011243;28;20041;-68
2022/04/21 03:38:59;;;;;;;15.88;10.73;;;1.50;95.20;;;;;;5010296;28;20036;-69
2022/04/21 03:41:25;;;;;;;15.38;10.40;;;1.60;95.30;;;;;;5007459;28;20058;-68
2022/04/21 03:43:51;;;;;;;17.15;10.95;;;1.60;95.30;;;;;;5007901;28;20037;-68
2022/04/21 03:46:16;;;;;;;14.32;10.52;;;1.60;95.30;;;;;;5031375;28;20025;-69
2022/04/21 03:48:42;;;;;;;16.13;10.93;;;1.50;95.30;;;;;;5031099;28;20045;-69
2022/04/21 03:51:11;;;;;;;17.40;11.90;;;1.50;95.30;;;;;;5019295;28;20105;-68
2022/04/21 03:53:36;;;;;;;18.77;11.07;;;1.30;95.40;;;;;;5028930;28;20029;-69
2022/04/21 03:56:02;;;;;;;15.85;11.43;;;1.20;95.90;;;;;;5033183;28;20040;-69
2022/04/21 03:58:28;;;;;;;16.52;11.60;;;1.20;96.00;;;;;;5027768;28;20129;-69
2022/04/21 04:00:53;;;;;;;15.98;11.75;;;1.10;96.00;;;;;;5031876;28;20032;-69
2022/04/21 04:03:19;;;;;;;18.83;12.10;;;1.00;96.20;;;;;;5032478;28;20037;-69
2022/04/21 04:05:45;;;;;;;17.02;12.35;;;1.00;96.40;;;;;;5024414;28;20032;-68
2022/04/21 04:10:54;;;;;;;16.55;11.55;;;1.10;96.40;;;;;;5027069;28;20079;-68
2022/04/21 04:13:24;;;;;;;16.35;11.52;;;1.20;96.60;;;;;;5034257;28;20038;-68
2022/04/21 04:15:54;;;;;;;16.88;11.90;;;1.20;96.40;;;;;;5028404;28;20048;-69
2022/04/21 04:18:24;;;;;;;18.70;11.18;;;1.30;96.40;;;;;;5030260;28;20026;-69
2022/04/21 04:20:49;;;;;;;15.40;11.02;;;1.30;96.20;;;;;;5025226;28;20032;-68
2022/04/21 04:23:19;;;;;;;18.42;12.07;;;1.30;96.10;;;;;;5028602;28;20080;-68
2022/04/21 04:25:46;;;;;;;17.00;11.40;;;1.30;95.90;;;;;;5033201;28;20037;-68
2022/04/21 04:28:12;;;;;;;18.40;11.98;;;1.40;95.80;;;;;;5031609;28;20033;-68
2022/04/21 04:30:38;;;;;;;17.77;11.88;;;1.50;95.70;;;;;;5027145;28;20053;-69
2022/04/21 04:33:05;;;;;;;19.17;12.27;;;1.60;95.50;;;;;;5033339;28;20044;-68
2022/04/21 04:35:31;;;;;;;17.40;12.15;;;1.70;95.20;;;;;;5035600;28;20075;-68
2022/04/21 04:37:57;;;;;;;21.65;14.55;;;1.90;94.70;;;;;;5027215;28;20323;-69
2022/04/21 04:40:24;;;;;;;24.10;15.02;;;1.90;94.50;;;;;;5033026;28;20034;-69
2022/04/21 04:42:50;;;;;;;34.40;26.52;;;1.90;94.60;;;;;;5020125;28;20029;-68
2022/04/21 04:48:00;;;;;;;;;;;1.90;94.70;;;;;;5026800;28;20033;-67
2022/04/21 04:50:25;;;;;;;21.38;14.55;;;1.80;94.90;;;;;;5034648;28;19909;-67
2022/04/21 04:52:58;;;;;;;21.50;15.00;;;1.70;95.20;;;;;;5032686;28;20042;-67
2022/04/21 04:55:24;;;;;;;19.70;14.25;;;1.70;95.50;;;;;;5024618;28;20407;-67
2022/04/21 04:57:50;;;;;;;17.40;12.35;;;1.80;95.60;;;;;;5022275;28;20045;-69
2022/04/21 05:00:16;;;;;;;17.05;11.88;;;1.80;95.60;;;;;;5022911;28;20042;-69
2022/04/21 05:02:42;;;;;;;17.73;12.30;;;1.90;95.60;;;;;;5030938;28;20029;-69
2022/04/21 05:05:14;;;;;;;16.48;11.68;;;2.00;95.50;;;;;;5029328;28;20287;-68
2022/04/21 05:07:39;;;;;;;18.80;12.45;;;2.10;95.30;;;;;;5029399;28;20021;-69
2022/04/21 05:10:07;;;;;;;22.27;14.65;;;2.20;95.00;;;;;;5031360;28;20041;-69
2022/04/21 05:12:38;;;;;;;22.45;14.85;;;2.30;94.80;;;;;;5023975;28;20441;-68
2022/04/21 05:15:06;;;;;;;22.35;15.40;;;2.30;94.60;;;;;;5023437;28;20046;-68
2022/04/21 05:17:32;;;;;;;34.33;25.05;;;2.50;94.70;;;;;;5019335;28;20041;-69
2022/04/21 05:19:58;;;;;;;28.48;20.25;;;2.70;93.80;;;;;;5049724;28;20034;-69
2022/04/21 05:22:27;;;;;;;34.80;20.23;;;2.80;93.30;;;;;;5029909;28;20041;-69
2022/04/21 05:24:57;;;;;;;35.85;22.33;;;2.70;93.20;;;;;;5021929;28;20029;-69
2022/04/21 05:27:22;;;;;;;20.75;15.40;;;2.80;93.40;;;;;;5026380;28;20030;-68
2022/04/21 05:32:36;;;;;;;16.52;11.77;;;3.20;92.60;;;;;;5026149;28;20033;-69
2022/04/21 05:35:05;;;;;;;19.15;12.73;;;3.40;92.00;;;;;;5024645;28;20053;-69
2022/04/21 05:37:32;;;;;;;16.58;12.30;;;3.50;91.80;;;;;;5030884;28;20104;-69
2022/04/21 05:39:58;;;;;;;19.27;14.00;;;3.50;91.70;;;;;;5034758;28;20164;-69
2022/04/21 05:42:25;;;;;;;22.95;14.75;;;3.70;91.50;;;;;;5030828;28;20108;-69
2022/04/21 05:44:54;;;;;;;25.30;17.02;;;3.80;91.40;;;;;;5031467;28;20033;-69
2022/04/21 05:47:25;;;;;;;22.75;13.85;;;3.90;91.40;;;;;;5025802;28;20053;-68
2022/04/21 05:49:51;;;;;;;21.83;14.50;;;4.00;91.30;;;;;;5022796;28;20056;-68
2022/04/21 05:52:21;;;;;;;20.17;13.48;;;4.10;91.10;;;;;;5020694;28;20030;-69
2022/04/21 05:54:47;;;;;;;22.73;12.75;;;4.20;91.10;;;;;;5026132;28;20031;-68
2022/04/21 05:57:13;;;;;;;19.17;12.43;;;4.30;91.10;;;;;;5021885;28;20025;-68
2022/04/21 05:59:39;;;;;;;16.88;11.50;;;4.30;91.30;;;;;;5016594;28;20105;-69
2022/04/21 06:02:06;;;;;;;20.40;13.52;;;4.50;90.70;;;;;;5019462;28;20360;-69
2022/04/21 06:04:32;;;;;;;17.77;12.50;;;4.50;90.40;;;;;;5018683;28;20099;-67
2022/04/21 06:06:58;;;;;;;20.50;13.43;;;4.60;90.30;;;;;;5022461;28;20338;-65
2022/04/21 06:09:24;;;;;;;22.52;14.45;;;4.90;89.50;;;;;;5030558;28;20423;-68
2022/04/21 06:11:50;;;;;;;17.33;12.77;;;5.00;89.30;;;;;;5028010;28;20029;-66
2022/04/21 06:14:16;;;;;;;19.27;13.02;;;5.00;88.50;;;;;;5026239;28;20034;-67
2022/04/21 06:16:41;;;;;;;22.23;13.23;;;5.00;88.40;;;;;;5035493;28;20052;-65
2022/04/21 06:19:07;;;;;;;20.63;12.80;;;5.20;88.50;;;;;;5028817;28;20054;-66
2022/04/21 06:21:33;;;;;;;20.02;12.23;;;5.40;88.00;;;;;;5033262;28;20117;-68
2022/04/21 06:23:58;;;;;;;20.60;13.00;;;5.60;87.30;;;;;;5036782;28;20030;-66
2022/04/21 06:26:25;;;;;;;21.15;12.88;;;5.80;86.70;;;;;;5019046;28;20026;-68
2022/04/21 06:28:55;;;;;;;19.85;13.18;;;5.80;86.40;;;;;;5029657;28;20350;-69
2022/04/21 06:31:21;;;;;;;20.70;12.90;;;5.90;86.30;;;;;;5017050;28;20037;-68
2022/04/21 06:33:46;;;;;;;15.75;11.77;;;6.10;85.60;;;;;;5024324;28;20049;-67
2022/04/21 06:36:12;;;;;;;16.60;12.40;;;6.20;84.50;;;;;;5018365;28;20117;-67
2022/04/21 06:38:38;;;;;;;14.73;11.00;;;6.20;84.50;;;;;;5027386;28;20029;-67
2022/04/21 06:41:04;;;;;;;14.52;11.40;;;6.30;84.80;;;;;;5025286;28;20184;-68
2022/04/21 06:48:57;;;;;;;17.67;10.80;;;6.70;82.90;;;;;;5016741;28;20488;-66
2022/04/21 06:51:27;;;;;;;15.70;11.60;;;6.70;82.80;;;;;;5022110;28;20022;-67
2022/04/21 06:53:54;;;;;;;20.13;12.73;;;6.80;83.10;;;;;;5017011;28;20096;-68
2022/04/21 06:56:20;;;;;;;15.02;11.07;;;6.90;82.90;;;;;;5022259;28;20117;-68
2022/04/21 06:58:46;;;;;;;15.60;10.27;;;7.10;83.20;;;;;;5019205;28;20120;-68
2022/04/21 07:01:12;;;;;;;14.88;10.52;;;7.10;83.20;;;;;;5029548;28;20025;-68
2022/04/21 07:03:38;;;;;;;17.73;10.93;;;7.20;83.50;;;;;;5021678;28;20080;-67
2022/04/21 07:06:05;;;;;;;15.82;11.68;;;7.40;83.50;;;;;;5027151;28;20088;-67
2022/04/21 07:08:34;;;;;;;15.20;10.90;;;7.50;83.10;;;;;;5028881;28;20037;-67
2022/04/21 07:11:00;;;;;;;13.57;10.60;;;7.50;82.90;;;;;;5031167;28;20385;-68
2022/04/21 07:13:25;;;;;;;16.27;11.00;;;7.60;82.60;;;;;;5028317;28;20025;-68
2022/04/21 07:15:53;;;;;;;14.93;10.35;;;7.70;82.90;;;;;;5019798;28;20068;-68
2022/04/21 07:18:19;;;;;;;16.17;10.52;;;7.90;82.80;;;;;;5021654;28;20339;-68
2022/04/21 07:20:46;;;;;;;13.90;10.02;;;8.00;82.20;;;;;;5027240;28;20036;-68
2022/04/21 07:23:12;;;;;;;14.80;10.75;;;8.20;82.30;;;;;;5036506;28;20092;-67
2022/04/21 07:25:39;;;;;;;17.05;11.02;;;8.30;82.10;;;;;;5039066;28;20025;-67
2022/04/21 07:28:06;;;;;;;12.73;9.85;;;8.40;81.90;;;;;;5036423;28;20079;-67
2022/04/21 07:30:31;;;;;;;16.17;10.77;;;8.50;81.60;;;;;;5036082;28;20308;-68
2022/04/21 07:32:57;;;;;;;15.30;11.30;;;8.50;81.90;;;;;;5028676;28;20021;-68
2022/04/21 07:35:24;;;;;;;17.85;12.10;;;8.50;82.30;;;;;;5020642;28;20493;-66
2022/04/21 07:37:50;;;;;;;16.45;11.98;;;8.70;81.80;;;;;;5034492;28;20426;-67
2022/04/21 07:40:16;;;;;;;16.70;11.05;;;8.80;81.30;;;;;;5049969;28;20022;-67
2022/04/21 07:42:45;;;;;;;16.80;12.13;;;8.80;81.20;;;;;;5033873;28;20331;-66
2022/04/21 07:45:10;;;;;;;15.80;11.38;;;8.80;81.60;;;;;;5028500;28;20052;-66
2022/04/21 07:47:36;;;;;;;17.40;11.55;;;9.00;81.40;;;;;;5024037;28;20096;-66
2022/04/21 07:50:02;;;;;;;17.02;11.50;;;9.20;81.30;;;;;;5022225;28;20025;-66
2022/04/21 07:55:19;;;;;;;16.15;9.55;;;10.90;77.50;;;;;;5019991;28;20041;-68
2022/04/21 07:57:46;;;;;;;11.95;9.23;;;11.90;73.10;;;;;;5038031;28;20026;-67
2022/04/21 08:00:16;;;;;;;13.35;9.38;;;12.80;70.80;;;;;;5033407;28;20017;-68
2022/04/21 08:02:44;;;;;;;12.45;9.90;;;13.50;67.80;;;;;;5020659;28;20462;-68
2022/04/21 08:05:12;;;;;;;14.60;10.00;;;13.50;67.20;;;;;;5033894;28;20025;-68
2022/04/21 08:07:38;;;;;;;13.55;9.77;;;13.60;67.40;;;;;;5035048;28;20022;-68
2022/04/21 08:10:11;;;;;;;16.02;10.55;;;13.70;66.40;;;;;;5020305;28;20078;-68
2022/04/21 08:12:47;;;;;;;16.83;10.93;;;14.10;65.90;;;;;;5036449;28;20075;-68
2022/04/21 08:15:20;;;;;;;15.98;10.77;;;14.40;65.30;;;;;;5018443;28;20060;-68
2022/04/21 08:17:46;;;;;;;13.80;10.27;;;14.40;64.40;;;;;;5034023;28;20100;-68
2022/04/21 08:20:12;;;;;;;13.35;9.82;;;14.40;64.50;;;;;;5037618;28;20383;-68
2022/04/21 08:22:39;;;;;;;15.05;9.15;;;14.70;64.70;;;;;;5028136;28;20029;-68
2022/04/21 08:33:20;;;;;;;13.48;10.63;;;14.90;64.20;;;;;;5033963;28;20245;-69
2022/04/21 08:35:48;;;;;;;16.30;10.75;;;14.90;64.50;;;;;;5018573;28;20108;-68
2022/04/21 08:38:14;;;;;;;13.75;10.43;;;15.00;65.20;;;;;;5018049;28;20033;-68
2022/04/21 08:40:53;;;;;;;14.05;10.52;;;15.50;63.00;;;;;;5036321;28;20105;-68
2022/04/21 08:43:19;;;;;;;13.65;9.80;;;15.70;63.00;;;;;;5036997;28;20044;-68
2022/04/21 08:45:46;;;;;;;15.45;10.57;;;16.10;62.70;;;;;;5037845;28;20100;-68
2022/04/21 08:48:13;;;;;;;14.43;11.13;;;16.00;62.00;;;;;;5030411;28;20022;-68
2022/04/21 08:50:40;;;;;;;14.32;10.70;;;16.00;62.40;;;;;;5036109;28;20422;-68
2022/04/21 08:53:06;;;;;;;14.88;11.35;;;15.50;61.10;;;;;;5020881;28;20041;-67
2022/04/21 08:55:33;;;;;;;15.93;11.05;;;15.20;62.10;;;;;;5028379;28;20052;-68
2022/04/21 08:58:03;;;;;;;16.40;11.20;;;15.10;63.50;;;;;;5026150;28;20038;-68
2022/04/21 09:00:31;;;;;;;15.00;11.32;;;15.30;62.50;;;;;;5033603;28;20021;-67
2022/04/21 09:02:58;;;;;;;16.90;11.57;;;15.60;62.50;;;;;;5036834;28;20030;-68
2022/04/21 09:05:28;;;;;;;17.75;10.80;;;15.90;63.20;;;;;;5027734;28;20029;-68
2022/04/21 09:07:54;;;;;;;13.93;10.50;;;16.10;62.60;;;;;;5016532;28;20022;-68
2022/04/21 09:10:20;;;;;;;14.57;10.88;;;16.20;60.70;;;;;;5018496;28;20351;-68
2022/04/21 09:12:50;;;;;;;13.90;10.95;;;15.70;60.90;;;;;;5026517;28;20583;-68
2022/04/21 09:15:18;;;;;;;17.52;12.07;;;15.60;61.60;;;;;;5028170;28;20053;-68
2022/04/21 09:17:52;;;;;;;16.77;11.25;;;15.60;62.10;;;;;;5017452;28;20026;-68
2022/04/21 09:20:21;;;;;;;18.38;11.52;;;15.50;63.50;;;;;;5018269;28;20374;-68
2022/04/21 09:22:52;;;;;;;19.25;11.63;;;16.00;63.00;;;;;;5026525;28;20336;-68
2022/04/21 09:25:19;;;;;;;16.83;12.15;;;16.60;62.10;;;;;;5028861;28;20018;-68
2022/04/21 09:27:48;;;;;;;17.50;12.02;;;16.70;62.00;;;;;;5037127;28;20032;-68
2022/04/21 09:30:17;;;;;;;15.30;12.15;;;16.70;60.60;;;;;;5033480;28;20072;-67
2022/04/21 09:33:02;;;;;;;16.00;12.00;;;16.50;61.50;;;;;;5017808;28;20300;-68
2022/04/21 09:35:33;;;;;;;14.60;11.32;;;16.90;61.70;;;;;;5027965;28;20115;-68
2022/04/21 09:38:02;;;;;;;16.70;12.55;;;17.40;60.10;;;;;;5030436;28;20037;-68
2022/04/21 09:40:29;;;;;;;20.40;12.43;;;17.40;60.50;;;;;;5029518;28;20104;-68
2022/04/21 09:43:00;;;;;;;15.45;11.40;;;17.50;61.30;;;;;;5017932;28;20042;-68
2022/04/21 09:48:21;;;;;;;13.30;11.05;;;17.80;58.70;;;;;;5023172;28;20079;-68
2022/04/21 09:50:55;;;;;;;17.35;11.60;;;18.30;58.50;;;;;;5022106;28;20033;-68
2022/04/21 09:53:23;;;;;;;14.02;11.65;;;18.00;58.50;;;;;;5034493;28;20033;-67
2022/04/21 09:56:08;;;;;;;16.50;11.25;;;17.70;59.40;;;;;;5035879;28;20481;-67
2022/04/21 09:58:38;;;;;;;14.63;11.25;;;17.70;59.10;;;;;;5026348;28;20046;-68
2022/04/21 10:01:06;;;;;;;15.18;12.25;;;18.00;58.20;;;;;;5034368;28;20431;-68
2022/04/21 10:03:33;;;;;;;19.17;12.20;;;18.10;58.60;;;;;;5025936;28;20080;-68
2022/04/21 10:06:00;;;;;;;15.27;11.85;;;18.20;59.00;;;;;;5015572;28;20014;-68
2022/04/21 10:08:25;;;;;;;18.30;12.52;;;18.40;59.20;;;;;;5016779;28;20042;-67
2022/04/21 10:10:53;;;;;;;13.27;11.52;;;18.80;58.00;;;;;;5035720;28;20036;-67
2022/04/21 10:13:23;;;;;;;15.75;12.05;;;18.90;58.10;;;;;;5032877;28;20445;-67
2022/04/21 10:15:51;;;;;;;14.82;11.55;;;18.80;58.00;;;;;;5034660;28;20055;-67
2022/04/21 10:18:18;;;;;;;13.18;11.15;;;19.10;58.50;;;;;;5026726;28;20396;-66
2022/04/21 10:20:45;;;;;;;13.93;11.07;;;19.30;57.30;;;;;;5016630;28;20033;-67
2022/04/21 10:23:16;;;;;;;16.00;12.20;;;19.40;57.80;;;;;;5025642;28;20014;-67
2022/04/21 10:25:45;;;;;;;15.23;12.25;;;18.90;58.40;;;;;;5016326;28;20018;-67
2022/04/21 10:28:36;;;;;;;14.50;12.45;;;18.90;57.90;;;;;;5023910;28;20025;-67
2022/04/21 10:31:28;;;;;;;17.38;12.32;;;18.80;57.90;;;;;;5030103;28;20116;-67
2022/04/21 10:33:58;;;;;;;15.38;12.63;;;18.80;58.10;;;;;;5018947;28;20025;-66
2022/04/21 10:36:38;;;;;;;16.63;12.15;;;18.50;57.60;;;;;;5014068;28;20084;-66
2022/04/21 10:39:24;;;;;;;14.68;11.63;;;17.30;61.10;;;;;;5016337;28;20101;-65
2022/04/21 10:42:10;;;;;;;16.67;11.65;;;18.20;58.90;;;;;;5015304;28;20076;-65
2022/04/21 10:44:43;;;;;;;17.65;12.57;;;18.70;59.10;;;;;;5032619;28;20032;-65
2022/04/21 10:47:28;;;;;;;13.25;11.85;;;19.10;57.60;;;;;;5034824;28;20021;-68
2022/04/21 10:49:56;;;;;;;14.52;11.43;;;19.20;56.80;;;;;;5018472;28;20022;-67
2022/04/21 10:57:53;;;;;;;;;;;19.00;56.90;;;;;;5018813;28;20113;-67
2022/04/21 11:00:26;;;;;;;14.32;10.68;;;19.00;57.40;;;;;;5030826;28;23337;-67
2022/04/21 11:03:07;;;;;;;15.02;11.68;;;19.00;57.40;;;;;;5037687;28;20032;-66
2022/04/21 11:05:39;;;;;;;13.52;10.30;;;18.80;57.80;;;;;;5039579;28;20338;-67
2022/04/21 11:08:12;;;;;;;13.70;10.38;;;18.90;59.20;;;;;;5038805;28;20056;-66
2022/04/21 11:10:38;;;;;;;13.05;10.43;;;19.30;56.50;;;;;;5039784;28;20017;-66
2022/04/21 11:13:08;;;;;;;14.07;10.75;;;19.20;56.70;;;;;;5039372;28;20032;-66
2022/04/21 11:15:53;;;;;;;11.93;10.40;;;18.90;56.00;;;;;;5038632;28;20383;-67
2022/04/21 11:18:21;;;;;;;13.60;9.90;;;18.70;58.20;;;;;;5039686;28;20025;-68
2022/04/21 11:20:50;;;;;;;12.65;9.65;;;19.00;56.90;;;;;;5039098;28;20087;-66
2022/04/21 11:23:45;;;;;;;12.50;9.73;;;18.90;57.30;;;;;;5038874;28;20030;-67
2022/04/21 11:26:11;;;;;;;10.63;8.98;;;18.80;56.90;;;;;;5039096;28;20036;-67
2022/04/21 11:28:46;;;;;;;16.15;9.80;;;19.30;56.10;;;;;;5039294;28;20026;-67
2022/04/21 11:31:13;;;;;;;14.43;10.00;;;19.20;56.00;;;;;;5025347;28;20101;-66
2022/04/21 11:33:39;;;;;;;12.25;9.75;;;19.20;56.40;;;;;;5019632;28;20133;-66
2022/04/21 11:36:08;;;;;;;14.05;9.52;;;19.50;56.20;;;;;;5018103;28;20036;-66
2022/04/21 11:38:34;;;;;;;12.35;9.07;;;19.50;55.80;;;;;;5019895;28;20026;-66
2022/04/21 11:41:04;;;;;;;11.85;9.90;;;19.00;56.30;;;;;;5032929;28;20075;-66
2022/04/21 11:43:30;;;;;;;12.77;10.50;;;17.90;57.70;;;;;;5019049;28;20072;-66
2022/04/21 11:46:00;;;;;;;16.00;10.07;;;17.80;58.60;;;;;;5028288;28;20033;-67
2022/04/21 11:48:34;;;;;;;12.80;10.30;;;18.00;58.90;;;;;;5028339;28;20018;-66
2022/04/21 11:51:01;;;;;;;12.10;9.80;;;18.40;58.80;;;;;;5037382;28;20117;-67
2022/04/21 11:53:36;;;;;;;12.88;10.55;;;18.30;58.70;;;;;;5037989;28;20186;-66
2022/04/21 11:56:06;;;;;;;14.23;9.45;;;17.90;58.60;;;;;;5037535;28;20029;-66
2022/04/21 11:58:36;;;;;;;15.15;9.68;;;17.80;59.80;;;;;;5038567;28;20087;-67
2022/04/21 12:06:53;;;;;;;15.32;10.15;;;18.40;59.90;;;;;;5017456;28;20493;-66
2022/04/21 12:09:21;;;;;;;11.23;9.55;;;18.30;58.40;;;;;;5037135;28;20357;-66
2022/04/21 12:11:50;;;;;;;13.32;10.23;;;18.20;58.90;;;;;;5038474;28;20025;-67
2022/04/21 12:14:17;;;;;;;14.05;10.90;;;18.20;58.60;;;;;;5036969;28;20045;-66
2022/04/21 12:16:47;;;;;;;14.57;9.25;;;18.00;59.60;;;;;;5036907;28;20077;-67
2022/04/21 12:19:32;;;;;;;12.88;9.95;;;17.80;60.40;;;;;;5036914;28;20025;-68
2022/04/21 12:22:16;;;;;;;12.98;9.68;;;17.90;60.50;;;;;;5020897;28;20033;-66
2022/04/21 12:24:45;;;;;;;12.25;9.20;;;18.20;59.70;;;;;;5027767;28;20033;-67
2022/04/21 12:27:16;;;;;;;10.88;8.35;;;17.90;59.60;;;;;;5030105;28;20032;-66
2022/04/21 12:29:52;;;;;;;13.13;9.60;;;18.00;61.00;;;;;;5037561;28;20017;-66
2022/04/21 12:32:25;;;;;;;11.63;8.95;;;17.80;59.90;;;;;;5030434;28;20045;-67
2022/04/21 12:34:54;;;;;;;11.23;9.20;;;18.20;60.40;;;;;;5025639;28;20025;-66
2022/04/21 12:37:25;;;;;;;11.70;8.88;;;18.40;59.00;;;;;;5027024;28;20311;-66
2022/04/21 12:39:52;;;;;;;11.95;8.98;;;18.40;59.00;;;;;;5028928;28;20034;-66
2022/04/21 12:42:19;;;;;;;12.93;9.23;;;18.00;60.00;;;;;;5024331;28;20029;-66
2022/04/21 12:44:45;;;;;;;11.25;8.80;;;18.20;60.80;;;;;;5033489;28;20071;-66
2022/04/21 12:47:17;;;;;;;13.40;9.43;;;18.60;60.50;;;;;;5034267;28;20029;-66
2022/04/21 12:49:58;;;;;;;13.25;8.63;;;18.30;60.40;;;;;;5037344;28;20029;-66
2022/04/21 12:52:32;;;;;;;12.32;9.30;;;18.20;59.90;;;;;;5043129;28;20314;-66
2022/04/21 12:54:59;;;;;;;;;;;18.10;60.00;;;;;;5032396;28;20033;-67
2022/04/21 12:57:29;;;;;;;10.93;9.10;;;18.20;61.90;;;;;;5036971;28;19996;-66
2022/04/21 12:59:55;;;;;;;10.50;8.57;;;17.90;60.40;;;;;;5034951;28;20030;-66
2022/04/21 13:02:22;;;;;;;11.88;9.07;;;18.00;60.70;;;;;;5028060;28;20426;-67
2022/04/21 13:04:48;;;;;;;12.18;8.63;;;18.20;60.60;;;;;;5017783;28;20080;-67
2022/04/21 13:07:13;;;;;;;11.38;8.77;;;18.50;60.60;;;;;;5016414;28;20105;-67
2022/04/21 13:09:39;;;;;;;11.63;7.72;;;18.40;59.60;;;;;;5020369;28;20041;-67
2022/04/21 13:12:05;;;;;;;11.07;8.00;;;18.60;61.70;;;;;;5036404;28;20406;-67
2022/04/21 13:14:31;;;;;;;11.50;8.40;;;19.00;59.90;;;;;;5028466;28;20029;-67
2022/04/21 13:16:57;;;;;;;10.52;7.78;;;19.10;58.80;;;;;;5036977;28;20037;-67
2022/04/21 13:19:23;;;;;;;9.85;7.70;;;19.40;58.50;;;;;;5035308;28;20411;-67
2022/04/21 13:21:58;;;;;;;9.57;7.18;;;19.30;60.10;;;;;;5033893;28;20078;-67
2022/04/21 13:24:25;;;;;;;10.70;6.85;;;19.50;58.00;;;;;;5036498;28;20373;-68
2022/04/21 13:26:52;;;;;;;11.82;7.60;;;20.00;59.20;;;;;;5026959;28;20331;-68
2022/04/21 13:29:21;;;;;;;9.50;7.00;;;20.20;57.50;;;;;;5025124;28;20020;-67
2022/04/21 13:34:35;;;;;;;8.63;6.63;;;19.80;56.60;;;;;;5017539;28;20025;-66
2022/04/21 13:37:02;;;;;;;8.98;6.45;;;19.30;58.90;;;;;;5019979;28;20041;-66
2022/04/21 13:39:29;;;;;;;12.13;6.63;;;20.00;57.10;;;;;;5025397;28;20022;-66
2022/04/21 13:41:55;;;;;;;8.68;6.47;;;20.50;55.90;;;;;;5034742;28;20025;-68
2022/04/21 13:44:20;;;;;;;7.82;5.95;;;19.90;56.40;;;;;;5035218;28;20469;-67